Terminal Aerodrome Forecast
Issued by NWS

Home | Current Version | Previous Version | Text Only | Print | Product List | Glossary On
Versions: 1 2 3 4 5 6 7 8 9 10 11 12 13 14 15 16 17 18 19 20 21 22 23 24 25 26 27 28 29 30 31 32 33
000
FTUS44 KHGX 202333
TAFSGR
TAF
KSGR 202333Z 2100/2124 08003KT P6SM VCSH FEW040 SCT045 BKN060
     FM210200 VRB03KT P6SM SCT007 BKN040 BKN120
     FM210400 VRB02KT 4SM BR SCT015 OVC100
      TEMPO 2110/2114 2SM BR BKN009
     FM211600 31008KT P6SM FEW020 SCT120
     FM212000 32012KT P6SM FEW250=

USA.gov is the U.S. government's official web portal to all federal, state and local government web resources and services.